sensor_id;sensor_type;location;lat;lon;timestamp;pressure;altitude;pressure_sealevel;temperature;humidity
41334;BME280;27078;46.428;6.256;2023-04-28T00:00:43;96427.75;;;12.78;100.00
41334;BME280;27078;46.428;6.256;2023-04-28T00:03:08;96419.19;;;12.84;100.00
41334;BME280;27078;46.428;6.256;2023-04-28T00:05:33;96412.16;;;12.93;100.00
41334;BME280;27078;46.428;6.256;2023-04-28T00:07:59;96415.19;;;12.98;100.00
41334;BME280;27078;46.428;6.256;2023-04-28T00:10:24;96415.34;;;12.97;100.00
41334;BME280;27078;46.428;6.256;2023-04-28T00:12:50;96418.16;;;12.95;100.00
41334;BME280;27078;46.428;6.256;2023-04-28T00:15:15;96421.63;;;12.96;100.00
41334;BME280;27078;46.428;6.256;2023-04-28T00:17:40;96411.72;;;12.98;100.00
41334;BME280;27078;46.428;6.256;2023-04-28T00:20:06;96420.13;;;12.93;100.00
41334;BME280;27078;46.428;6.256;2023-04-28T00:22:32;96428.22;;;12.92;100.00
41334;BME280;27078;46.428;6.256;2023-04-28T00:24:57;96421.47;;;12.97;100.00
41334;BME280;27078;46.428;6.256;2023-04-28T00:27:23;96428.81;;;13.03;100.00
41334;BME280;27078;46.428;6.256;2023-04-28T00:29:48;96435.19;;;13.11;100.00
41334;BME280;27078;46.428;6.256;2023-04-28T00:32:13;96431.94;;;13.17;100.00
41334;BME280;27078;46.428;6.256;2023-04-28T00:34:39;96430.78;;;13.19;100.00
41334;BME280;27078;46.428;6.256;2023-04-28T00:37:04;96416.84;;;13.17;100.00
41334;BME280;27078;46.428;6.256;2023-04-28T00:39:29;96406.91;;;13.19;100.00
41334;BME280;27078;46.428;6.256;2023-04-28T00:41:55;96410.59;;;13.27;100.00
41334;BME280;27078;46.428;6.256;2023-04-28T00:44:21;96399.41;;;13.33;100.00
41334;BME280;27078;46.428;6.256;2023-04-28T00:46:47;96395.94;;;13.32;100.00
41334;BME280;27078;46.428;6.256;2023-04-28T00:49:14;96397.91;;;13.30;100.00
41334;BME280;27078;46.428;6.256;2023-04-28T00:51:40;96393.88;;;13.26;100.00
41334;BME280;27078;46.428;6.256;2023-04-28T00:54:05;96388.88;;;13.23;100.00
41334;BME280;27078;46.428;6.256;2023-04-28T00:56:32;96390.31;;;13.17;100.00
41334;BME280;27078;46.428;6.256;2023-04-28T00:58:58;96399.72;;;13.12;100.00
41334;BME280;27078;46.428;6.256;2023-04-28T01:01:23;96390.88;;;13.03;100.00
41334;BME280;27078;46.428;6.256;2023-04-28T01:03:49;96395.50;;;13.01;100.00
41334;BME280;27078;46.428;6.256;2023-04-28T01:06:15;96399.81;;;13.02;100.00
41334;BME280;27078;46.428;6.256;2023-04-28T01:08:41;96402.00;;;13.07;100.00
41334;BME280;27078;46.428;6.256;2023-04-28T01:11:08;96400.66;;;13.02;100.00
41334;BME280;27078;46.428;6.256;2023-04-28T01:13:38;96400.94;;;12.99;100.00
41334;BME280;27078;46.428;6.256;2023-04-28T01:16:03;96396.50;;;13.00;100.00
41334;BME280;27078;46.428;6.256;2023-04-28T01:18:30;96398.47;;;12.98;100.00
41334;BME280;27078;46.428;6.256;2023-04-28T01:20:56;96388.81;;;12.97;100.00
41334;BME280;27078;46.428;6.256;2023-04-28T01:23:21;96394.13;;;12.97;100.00
41334;BME280;27078;46.428;6.256;2023-04-28T01:25:46;96386.16;;;12.97;100.00
41334;BME280;27078;46.428;6.256;2023-04-28T01:28:12;96389.81;;;12.96;100.00
41334;BME280;27078;46.428;6.256;2023-04-28T01:30:37;96393.75;;;12.92;100.00
41334;BME280;27078;46.428;6.256;2023-04-28T01:33:02;96392.41;;;12.88;100.00
41334;BME280;27078;46.428;6.256;2023-04-28T01:35:28;96388.38;;;12.83;100.00
41334;BME280;27078;46.428;6.256;2023-04-28T01:37:53;96385.06;;;12.81;100.00
41334;BME280;27078;46.428;6.256;2023-04-28T01:40:19;96395.19;;;12.86;100.00
41334;BME280;27078;46.428;6.256;2023-04-28T01:42:44;96395.41;;;12.93;100.00
41334;BME280;27078;46.428;6.256;2023-04-28T01:45:10;96395.50;;;13.01;100.00
41334;BME280;27078;46.428;6.256;2023-04-28T01:47:36;96389.72;;;13.06;100.00
41334;BME280;27078;46.428;6.256;2023-04-28T01:50:01;96394.59;;;13.10;100.00
41334;BME280;27078;46.428;6.256;2023-04-28T01:52:27;96396.25;;;13.11;100.00
41334;BME280;27078;46.428;6.256;2023-04-28T01:54:53;96392.91;;;13.09;100.00
41334;BME280;27078;46.428;6.256;2023-04-28T01:57:18;96385.50;;;13.13;100.00
41334;BME280;27078;46.428;6.256;2023-04-28T01:59:44;96382.66;;;13.14;100.00
41334;BME280;27078;46.428;6.256;2023-04-28T02:02:09;96386.16;;;13.15;100.00
41334;BME280;27078;46.428;6.256;2023-04-28T02:04:37;96388.81;;;13.15;100.00
41334;BME280;27078;46.428;6.256;2023-04-28T02:07:02;96384.50;;;13.14;100.00
41334;BME280;27078;46.428;6.256;2023-04-28T02:09:28;96391.97;;;13.18;100.00
41334;BME280;27078;46.428;6.256;2023-04-28T02:11:53;96389.34;;;13.36;100.00
41334;BME280;27078;46.428;6.256;2023-04-28T02:14:18;96390.59;;;13.50;100.00
41334;BME280;27078;46.428;6.256;2023-04-28T02:16:44;96390.63;;;13.58;100.00
41334;BME280;27078;46.428;6.256;2023-04-28T02:19:09;96391.06;;;13.72;100.00
41334;BME280;27078;46.428;6.256;2023-04-28T02:21:34;96393.94;;;13.78;100.00
41334;BME280;27078;46.428;6.256;2023-04-28T02:24:00;96388.66;;;13.87;100.00
41334;BME280;27078;46.428;6.256;2023-04-28T02:26:25;96400.31;;;13.94;100.00
41334;BME280;27078;46.428;6.256;2023-04-28T02:28:51;96405.13;;;13.98;100.00
41334;BME280;27078;46.428;6.256;2023-04-28T02:31:17;96398.19;;;13.97;100.00
41334;BME280;27078;46.428;6.256;2023-04-28T02:33:42;96402.19;;;14.01;100.00
41334;BME280;27078;46.428;6.256;2023-04-28T02:36:08;96397.94;;;14.17;100.00
41334;BME280;27078;46.428;6.256;2023-04-28T02:38:34;96395.94;;;14.19;100.00
41334;BME280;27078;46.428;6.256;2023-04-28T02:41:00;96402.44;;;14.24;100.00
41334;BME280;27078;46.428;6.256;2023-04-28T02:43:29;96401.44;;;14.25;100.00
41334;BME280;27078;46.428;6.256;2023-04-28T02:45:55;96408.88;;;14.22;100.00
41334;BME280;27078;46.428;6.256;2023-04-28T02:48:21;96410.94;;;14.36;100.00
41334;BME280;27078;46.428;6.256;2023-04-28T02:50:47;96417.03;;;14.29;100.00
41334;BME280;27078;46.428;6.256;2023-04-28T02:53:12;96416.56;;;14.25;100.00
41334;BME280;27078;46.428;6.256;2023-04-28T02:55:38;96413.72;;;14.18;100.00
41334;BME280;27078;46.428;6.256;2023-04-28T02:58:03;96411.88;;;14.19;100.00
41334;BME280;27078;46.428;6.256;2023-04-28T03:00:29;96406.22;;;14.22;100.00
41334;BME280;27078;46.428;6.256;2023-04-28T03:02:54;96415.88;;;14.23;100.00
41334;BME280;27078;46.428;6.256;2023-04-28T03:05:19;96411.09;;;14.27;100.00
41334;BME280;27078;46.428;6.256;2023-04-28T03:07:45;96409.25;;;14.27;100.00
41334;BME280;27078;46.428;6.256;2023-04-28T03:10:10;96408.63;;;14.33;100.00
41334;BME280;27078;46.428;6.256;2023-04-28T03:12:36;96412.94;;;14.34;100.00
41334;BME280;27078;46.428;6.256;2023-04-28T03:15:01;96419.91;;;14.35;100.00
41334;BME280;27078;46.428;6.256;2023-04-28T03:17:27;96419.53;;;14.30;100.00
41334;BME280;27078;46.428;6.256;2023-04-28T03:19:52;96423.69;;;14.24;100.00
41334;BME280;27078;46.428;6.256;2023-04-28T03:22:18;96427.66;;;14.20;100.00
41334;BME280;27078;46.428;6.256;2023-04-28T03:24:43;96421.19;;;14.23;100.00
41334;BME280;27078;46.428;6.256;2023-04-28T03:27:08;96417.19;;;14.19;100.00
41334;BME280;27078;46.428;6.256;2023-04-28T03:29:34;96422.81;;;14.16;100.00
41334;BME280;27078;46.428;6.256;2023-04-28T03:32:00;96416.13;;;14.12;100.00
41334;BME280;27078;46.428;6.256;2023-04-28T03:34:26;96415.16;;;14.13;100.00
41334;BME280;27078;46.428;6.256;2023-04-28T03:36:51;96416.00;;;14.13;100.00
41334;BME280;27078;46.428;6.256;2023-04-28T03:39:16;96401.56;;;14.16;100.00
41334;BME280;27078;46.428;6.256;2023-04-28T03:41:42;96401.06;;;14.12;100.00
41334;BME280;27078;46.428;6.256;2023-04-28T03:44:07;96392.91;;;14.14;100.00
41334;BME280;27078;46.428;6.256;2023-04-28T03:46:32;96396.91;;;14.18;100.00
41334;BME280;27078;46.428;6.256;2023-04-28T03:48:59;96400.88;;;14.14;100.00
41334;BME280;27078;46.428;6.256;2023-04-28T03:51:26;96410.88;;;14.20;100.00
41334;BME280;27078;46.428;6.256;2023-04-28T03:53:53;96410.88;;;14.20;100.00
41334;BME280;27078;46.428;6.256;2023-04-28T03:56:18;96402.22;;;14.18;100.00
41334;BME280;27078;46.428;6.256;2023-04-28T03:58:44;96405.75;;;14.18;100.00
41334;BME280;27078;46.428;6.256;2023-04-28T04:01:09;96400.56;;;14.17;100.00
41334;BME280;27078;46.428;6.256;2023-04-28T04:03:34;96396.81;;;14.28;100.00
41334;BME280;27078;46.428;6.256;2023-04-28T04:06:00;96387.19;;;14.35;100.00
41334;BME280;27078;46.428;6.256;2023-04-28T04:08:26;96379.41;;;14.33;100.00
41334;BME280;27078;46.428;6.256;2023-04-28T04:10:52;96382.50;;;14.29;100.00
41334;BME280;27078;46.428;6.256;2023-04-28T04:13:19;96387.81;;;14.20;100.00
41334;BME280;27078;46.428;6.256;2023-04-28T04:15:44;96395.28;;;14.17;100.00
41334;BME280;27078;46.428;6.256;2023-04-28T04:18:10;96395.56;;;14.14;100.00
41334;BME280;27078;46.428;6.256;2023-04-28T04:20:35;96402.41;;;14.16;100.00
41334;BME280;27078;46.428;6.256;2023-04-28T04:23:01;96403.56;;;14.22;100.00
41334;BME280;27078;46.428;6.256;2023-04-28T04:25:27;96399.28;;;14.21;100.00
41334;BME280;27078;46.428;6.256;2023-04-28T04:27:53;96388.31;;;14.24;100.00
41334;BME280;27078;46.428;6.256;2023-04-28T04:30:18;96392.28;;;14.20;100.00
41334;BME280;27078;46.428;6.256;2023-04-28T04:32:43;96391.78;;;14.16;100.00
41334;BME280;27078;46.428;6.256;2023-04-28T04:35:09;96397.25;;;14.15;100.00
41334;BME280;27078;46.428;6.256;2023-04-28T04:37:34;96402.88;;;14.12;100.00
41334;BME280;27078;46.428;6.256;2023-04-28T04:39:59;96405.31;;;14.05;100.00
41334;BME280;27078;46.428;6.256;2023-04-28T04:42:25;96412.78;;;14.01;100.00
41334;BME280;27078;46.428;6.256;2023-04-28T04:44:50;96400.81;;;13.97;100.00
41334;BME280;27078;46.428;6.256;2023-04-28T04:47:16;96399.47;;;13.93;100.00
41334;BME280;27078;46.428;6.256;2023-04-28T04:49:41;96408.41;;;13.92;100.00
41334;BME280;27078;46.428;6.256;2023-04-28T04:52:06;96408.41;;;13.92;100.00
41334;BME280;27078;46.428;6.256;2023-04-28T04:54:32;96408.94;;;13.96;100.00
41334;BME280;27078;46.428;6.256;2023-04-28T04:56:57;96406.28;;;13.96;100.00
41334;BME280;27078;46.428;6.256;2023-04-28T04:59:23;96416.13;;;14.03;100.00
41334;BME280;27078;46.428;6.256;2023-04-28T05:01:48;96416.81;;;14.14;100.00
41334;BME280;27078;46.428;6.256;2023-04-28T05:04:13;96412.84;;;14.18;100.00
41334;BME280;27078;46.428;6.256;2023-04-28T05:06:39;96412.84;;;14.18;100.00
41334;BME280;27078;46.428;6.256;2023-04-28T05:09:04;96417.88;;;14.21;100.00
41334;BME280;27078;46.428;6.256;2023-04-28T05:11:30;96424.34;;;14.18;100.00
41334;BME280;27078;46.428;6.256;2023-04-28T05:13:55;96438.44;;;14.19;100.00
41334;BME280;27078;46.428;6.256;2023-04-28T05:16:20;96432.44;;;14.17;100.00
41334;BME280;27078;46.428;6.256;2023-04-28T05:18:46;96431.81;;;14.23;100.00
41334;BME280;27078;46.428;6.256;2023-04-28T05:21:12;96427.84;;;14.27;100.00
41334;BME280;27078;46.428;6.256;2023-04-28T05:23:37;96431.56;;;14.42;100.00
41334;BME280;27078;46.428;6.256;2023-04-28T05:26:03;96418.97;;;14.53;100.00
41334;BME280;27078;46.428;6.256;2023-04-28T05:28:29;96426.50;;;14.65;100.00
41334;BME280;27078;46.428;6.256;2023-04-28T05:30:55;96420.72;;;14.78;100.00
41334;BME280;27078;46.428;6.256;2023-04-28T05:33:20;96423.91;;;14.90;100.00
41334;BME280;27078;46.428;6.256;2023-04-28T05:35:46;96423.75;;;15.00;100.00
41334;BME280;27078;46.428;6.256;2023-04-28T05:38:12;96434.72;;;14.97;100.00
41334;BME280;27078;46.428;6.256;2023-04-28T05:40:37;96421.75;;;14.94;100.00
41334;BME280;27078;46.428;6.256;2023-04-28T05:43:02;96423.72;;;14.92;100.00
41334;BME280;27078;46.428;6.256;2023-04-28T05:45:28;96415.94;;;14.98;100.00
41334;BME280;27078;46.428;6.256;2023-04-28T05:47:54;96422.44;;;15.04;100.00
41334;BME280;27078;46.428;6.256;2023-04-28T05:50:19;96422.78;;;15.09;100.00
41334;BME280;27078;46.428;6.256;2023-04-28T05:52:45;96422.59;;;15.19;100.00
41334;BME280;27078;46.428;6.256;2023-04-28T05:55:11;96437.25;;;15.31;100.00
41334;BME280;27078;46.428;6.256;2023-04-28T05:57:36;96426.09;;;15.44;100.00
41334;BME280;27078;46.428;6.256;2023-04-28T06:00:02;96424.09;;;15.62;100.00
41334;BME280;27078;46.428;6.256;2023-04-28T06:02:28;96423.25;;;15.78;100.00
41334;BME280;27078;46.428;6.256;2023-04-28T06:04:53;96434.72;;;15.95;100.00
41334;BME280;27078;46.428;6.256;2023-04-28T06:07:18;96442.81;;;16.10;100.00
41334;BME280;27078;46.428;6.256;2023-04-28T06:09:44;96429.19;;;16.13;100.00
41334;BME280;27078;46.428;6.256;2023-04-28T06:12:09;96437.66;;;16.17;100.00
41334;BME280;27078;46.428;6.256;2023-04-28T06:14:34;96442.50;;;16.13;100.00
41334;BME280;27078;46.428;6.256;2023-04-28T06:17:02;96440.31;;;16.08;100.00
41334;BME280;27078;46.428;6.256;2023-04-28T06:19:27;96433.03;;;16.02;100.00
41334;BME280;27078;46.428;6.256;2023-04-28T06:21:53;96437.06;;;15.98;100.00
41334;BME280;27078;46.428;6.256;2023-04-28T06:24:18;96436.38;;;15.96;100.00
41334;BME280;27078;46.428;6.256;2023-04-28T06:26:43;96437.22;;;15.97;100.00
41334;BME280;27078;46.428;6.256;2023-04-28T06:29:09;96427.38;;;15.97;100.00
41334;BME280;27078;46.428;6.256;2023-04-28T06:31:34;96434.38;;;15.98;100.00
41334;BME280;27078;46.428;6.256;2023-04-28T06:33:59;96432.88;;;15.96;100.00
41334;BME280;27078;46.428;6.256;2023-04-28T06:36:25;96440.19;;;15.94;100.00
41334;BME280;27078;46.428;6.256;2023-04-28T06:38:50;96441.88;;;16.03;100.00
41334;BME280;27078;46.428;6.256;2023-04-28T06:41:16;96444.81;;;16.16;99.74
41334;BME280;27078;46.428;6.256;2023-04-28T06:43:41;96451.44;;;16.28;100.00
41334;BME280;27078;46.428;6.256;2023-04-28T06:46:06;96451.19;;;16.46;99.90
41334;BME280;27078;46.428;6.256;2023-04-28T06:48:32;96435.97;;;16.63;100.00
41334;BME280;27078;46.428;6.256;2023-04-28T06:50:58;96440.06;;;16.74;100.00
41334;BME280;27078;46.428;6.256;2023-04-28T06:53:23;96450.06;;;16.80;99.01
41334;BME280;27078;46.428;6.256;2023-04-28T06:55:48;96445.06;;;16.85;95.72
41334;BME280;27078;46.428;6.256;2023-04-28T06:58:13;96438.16;;;16.91;97.66
41334;BME280;27078;46.428;6.256;2023-04-28T07:00:39;96432.47;;;17.25;94.30
41334;BME280;27078;46.428;6.256;2023-04-28T07:03:05;96432.91;;;17.52;94.27
41334;BME280;27078;46.428;6.256;2023-04-28T07:05:31;96438.63;;;17.87;100.00
41334;BME280;27078;46.428;6.256;2023-04-28T07:07:58;96444.25;;;18.07;97.13
41334;BME280;27078;46.428;6.256;2023-04-28T07:10:23;96456.63;;;18.08;95.54
41334;BME280;27078;46.428;6.256;2023-04-28T07:12:49;96454.69;;;18.02;97.95
41334;BME280;27078;46.428;6.256;2023-04-28T07:15:16;96447.41;;;17.96;91.46
41334;BME280;27078;46.428;6.256;2023-04-28T07:17:41;96455.13;;;18.05;92.83
41334;BME280;27078;46.428;6.256;2023-04-28T07:20:07;96452.09;;;18.23;87.58
41334;BME280;27078;46.428;6.256;2023-04-28T07:22:32;96456.34;;;18.33;90.08
41334;BME280;27078;46.428;6.256;2023-04-28T07:24:58;96455.69;;;18.30;84.15
41334;BME280;27078;46.428;6.256;2023-04-28T07:27:23;96458.66;;;18.50;88.42
41334;BME280;27078;46.428;6.256;2023-04-28T07:29:48;96454.13;;;18.51;82.34
41334;BME280;27078;46.428;6.256;2023-04-28T07:32:14;96463.25;;;18.57;86.11
41334;BME280;27078;46.428;6.256;2023-04-28T07:34:39;96462.88;;;18.45;84.66
41334;BME280;27078;46.428;6.256;2023-04-28T07:37:05;96455.25;;;18.27;84.11
41334;BME280;27078;46.428;6.256;2023-04-28T07:39:31;96447.66;;;18.16;82.83
41334;BME280;27078;46.428;6.256;2023-04-28T07:41:58;96457.72;;;18.14;81.92
41334;BME280;27078;46.428;6.256;2023-04-28T07:44:24;96448.06;;;18.13;84.21
41334;BME280;27078;46.428;6.256;2023-04-28T07:46:49;96448.69;;;18.29;82.35
41334;BME280;27078;46.428;6.256;2023-04-28T07:49:15;96452.28;;;18.51;82.65
41334;BME280;27078;46.428;6.256;2023-04-28T07:51:40;96448.69;;;18.44;77.78
41334;BME280;27078;46.428;6.256;2023-04-28T07:54:06;96444.34;;;18.58;82.91
41334;BME280;27078;46.428;6.256;2023-04-28T07:56:31;96453.97;;;19.04;77.28
41334;BME280;27078;46.428;6.256;2023-04-28T07:58:57;96453.09;;;19.40;76.00
41334;BME280;27078;46.428;6.256;2023-04-28T08:01:22;96462.13;;;19.39;80.31
41334;BME280;27078;46.428;6.256;2023-04-28T08:03:48;96457.41;;;19.41;84.76
41334;BME280;27078;46.428;6.256;2023-04-28T08:06:13;96455.84;;;19.25;78.48
41334;BME280;27078;46.428;6.256;2023-04-28T08:08:38;96449.53;;;19.54;74.90
41334;BME280;27078;46.428;6.256;2023-04-28T08:11:04;96459.84;;;19.57;82.90
41334;BME280;27078;46.428;6.256;2023-04-28T08:13:30;96455.66;;;19.48;82.54
41334;BME280;27078;46.428;6.256;2023-04-28T08:15:55;96448.63;;;19.47;83.36
41334;BME280;27078;46.428;6.256;2023-04-28T08:18:21;96456.53;;;19.33;81.14
41334;BME280;27078;46.428;6.256;2023-04-28T08:20:47;96453.72;;;19.63;86.17
41334;BME280;27078;46.428;6.256;2023-04-28T08:23:12;96456.81;;;19.82;82.26
41334;BME280;27078;46.428;6.256;2023-04-28T08:25:38;96451.50;;;19.88;78.62
41334;BME280;27078;46.428;6.256;2023-04-28T08:28:03;96462.69;;;19.99;80.81
41334;BME280;27078;46.428;6.256;2023-04-28T08:30:30;96451.88;;;20.13;75.97
41334;BME280;27078;46.428;6.256;2023-04-28T08:32:56;96451.22;;;20.46;77.05
41334;BME280;27078;46.428;6.256;2023-04-28T08:35:21;96453.19;;;20.59;75.09
41334;BME280;27078;46.428;6.256;2023-04-28T08:37:47;96465.53;;;20.53;76.51
41334;BME280;27078;46.428;6.256;2023-04-28T08:40:13;96463.72;;;20.61;74.62
41334;BME280;27078;46.428;6.256;2023-04-28T08:42:40;96459.19;;;20.68;72.34
41334;BME280;27078;46.428;6.256;2023-04-28T08:45:06;96468.06;;;20.62;73.48
41334;BME280;27078;46.428;6.256;2023-04-28T08:47:36;96461.59;;;20.49;72.71
41334;BME280;27078;46.428;6.256;2023-04-28T08:50:08;96468.06;;;20.62;74.32
41334;BME280;27078;46.428;6.256;2023-04-28T08:52:34;96465.63;;;20.32;76.54
41334;BME280;27078;46.428;6.256;2023-04-28T08:55:04;96463.59;;;20.76;78.40
41334;BME280;27078;46.428;6.256;2023-04-28T08:57:58;96454.31;;;20.85;73.69
41334;BME280;27078;46.428;6.256;2023-04-28T09:00:23;96453.28;;;20.79;70.75
41334;BME280;27078;46.428;6.256;2023-04-28T09:02:49;96464.09;;;20.99;70.24
41334;BME280;27078;46.428;6.256;2023-04-28T09:05:14;96455.34;;;21.52;75.66
41334;BME280;27078;46.428;6.256;2023-04-28T09:07:40;96462.22;;;21.68;69.42
41334;BME280;27078;46.428;6.256;2023-04-28T09:12:43;96457.22;;;21.58;70.00
41334;BME280;27078;46.428;6.256;2023-04-28T09:15:09;96466.88;;;21.39;69.47
41334;BME280;27078;46.428;6.256;2023-04-28T09:17:50;96463.53;;;21.17;69.62
41334;BME280;27078;46.428;6.256;2023-04-28T09:20:20;96454.69;;;21.37;69.60
41334;BME280;27078;46.428;6.256;2023-04-28T09:22:47;96460.53;;;21.47;74.11
41334;BME280;27078;46.428;6.256;2023-04-28T09:25:13;96463.41;;;21.45;66.24
41334;BME280;27078;46.428;6.256;2023-04-28T09:27:38;96462.81;;;21.90;71.15
41334;BME280;27078;46.428;6.256;2023-04-28T09:30:04;96463.22;;;22.00;63.89
41334;BME280;27078;46.428;6.256;2023-04-28T09:32:30;96456.41;;;22.24;63.53
41334;BME280;27078;46.428;6.256;2023-04-28T09:34:55;96454.75;;;22.23;66.45
41334;BME280;27078;46.428;6.256;2023-04-28T09:37:23;96452.91;;;21.64;65.29
41334;BME280;27078;46.428;6.256;2023-04-28T09:39:53;96461.53;;;21.46;69.37
41334;BME280;27078;46.428;6.256;2023-04-28T09:42:42;96449.94;;;21.25;63.37
41334;BME280;27078;46.428;6.256;2023-04-28T09:45:11;96464.69;;;20.94;68.65
41334;BME280;27078;46.428;6.256;2023-04-28T09:47:40;96470.94;;;20.60;68.65
41334;BME280;27078;46.428;6.256;2023-04-28T09:50:09;96477.75;;;20.63;69.95
41334;BME280;27078;46.428;6.256;2023-04-28T09:52:40;96467.38;;;20.94;69.40
41334;BME280;27078;46.428;6.256;2023-04-28T09:55:08;96460.44;;;21.33;69.64
41334;BME280;27078;46.428;6.256;2023-04-28T09:57:35;96453.72;;;21.71;68.60
41334;BME280;27078;46.428;6.256;2023-04-28T10:00:02;96457.22;;;21.58;68.79
41334;BME280;27078;46.428;6.256;2023-04-28T10:02:36;96461.78;;;21.51;69.27
41334;BME280;27078;46.428;6.256;2023-04-28T10:05:04;96447.31;;;21.65;71.02
41334;BME280;27078;46.428;6.256;2023-04-28T10:07:33;96447.50;;;21.44;69.03
41334;BME280;27078;46.428;6.256;2023-04-28T10:10:00;96442.50;;;21.27;68.38
41334;BME280;27078;46.428;6.256;2023-04-28T10:12:29;96435.31;;;21.48;67.56
41334;BME280;27078;46.428;6.256;2023-04-28T10:14:55;96437.38;;;21.46;68.94
41334;BME280;27078;46.428;6.256;2023-04-28T10:17:21;96430.78;;;21.48;65.99
41334;BME280;27078;46.428;6.256;2023-04-28T10:19:53;96439.06;;;21.87;69.63
41334;BME280;27078;46.428;6.256;2023-04-28T10:27:39;96435.75;;;21.85;65.87
41334;BME280;27078;46.428;6.256;2023-04-28T10:30:13;96434.69;;;21.86;67.26
41334;BME280;27078;46.428;6.256;2023-04-28T10:32:40;96435.53;;;21.60;70.03
41334;BME280;27078;46.428;6.256;2023-04-28T10:38:10;96429.72;;;21.43;70.09
41334;BME280;27078;46.428;6.256;2023-04-28T10:40:47;96439.38;;;21.24;70.99
41334;BME280;27078;46.428;6.256;2023-04-28T10:43:33;96448.69;;;21.28;72.49
41334;BME280;27078;46.428;6.256;2023-04-28T10:46:06;96445.13;;;21.14;73.49
41334;BME280;27078;46.428;6.256;2023-04-28T10:58:48;96433.88;;;21.52;69.28
41334;BME280;27078;46.428;6.256;2023-04-28T11:01:31;96431.81;;;21.61;73.79
41334;BME280;27078;46.428;6.256;2023-04-28T11:04:06;96422.28;;;22.05;73.42
41334;BME280;27078;46.428;6.256;2023-04-28T11:06:42;96416.06;;;22.04;70.31
41334;BME280;27078;46.428;6.256;2023-04-28T11:11:37;96425.81;;;21.52;69.96
41334;BME280;27078;46.428;6.256;2023-04-28T11:16:49;96418.34;;;21.34;73.54
41334;BME280;27078;46.428;6.256;2023-04-28T11:19:23;96415.88;;;21.46;70.75
41334;BME280;27078;46.428;6.256;2023-04-28T11:21:51;96407.63;;;21.74;69.69
41334;BME280;27078;46.428;6.256;2023-04-28T11:24:18;96408.66;;;21.66;72.71
41334;BME280;27078;46.428;6.256;2023-04-28T11:26:44;96405.97;;;21.66;74.90
41334;BME280;27078;46.428;6.256;2023-04-28T11:29:11;96401.41;;;21.73;70.55
41334;BME280;27078;46.428;6.256;2023-04-28T11:31:39;96398.72;;;21.93;73.52
41334;BME280;27078;46.428;6.256;2023-04-28T11:34:10;96411.06;;;22.34;67.67
41334;BME280;27078;46.428;6.256;2023-04-28T11:36:38;96399.09;;;22.82;65.66
41334;BME280;27078;46.428;6.256;2023-04-28T11:39:05;96389.94;;;22.96;66.54
41334;BME280;27078;46.428;6.256;2023-04-28T11:41:36;96388.16;;;23.72;68.73
41334;BME280;27078;46.428;6.256;2023-04-28T11:44:21;96372.75;;;22.91;66.91
41334;BME280;27078;46.428;6.256;2023-04-28T11:46:52;96383.03;;;22.62;66.53
41334;BME280;27078;46.428;6.256;2023-04-28T11:49:22;96379.53;;;23.00;65.76
41334;BME280;27078;46.428;6.256;2023-04-28T11:51:53;96386.25;;;22.84;65.18
41334;BME280;27078;46.428;6.256;2023-04-28T11:54:28;96383.00;;;22.75;67.01
41334;BME280;27078;46.428;6.256;2023-04-28T11:56:55;96384.97;;;22.48;64.49
41334;BME280;27078;46.428;6.256;2023-04-28T11:59:29;96391.84;;;22.17;66.08
41334;BME280;27078;46.428;6.256;2023-04-28T12:01:57;96378.22;;;21.99;67.58
41334;BME280;27078;46.428;6.256;2023-04-28T12:04:30;96371.94;;;22.45;69.22
41334;BME280;27078;46.428;6.256;2023-04-28T12:07:04;96375.63;;;22.51;70.13
41334;BME280;27078;46.428;6.256;2023-04-28T12:09:32;96381.09;;;22.17;71.10
41334;BME280;27078;46.428;6.256;2023-04-28T12:12:00;96383.38;;;22.14;73.14
41334;BME280;27078;46.428;6.256;2023-04-28T12:14:27;96376.75;;;22.30;69.12
41334;BME280;27078;46.428;6.256;2023-04-28T12:16:55;96379.63;;;22.22;68.43
41334;BME280;27078;46.428;6.256;2023-04-28T12:19:21;96388.94;;;22.32;69.61
41334;BME280;27078;46.428;6.256;2023-04-28T12:22:04;96379.19;;;22.38;72.81
41334;BME280;27078;46.428;6.256;2023-04-28T12:24:31;96379.69;;;22.67;67.48
41334;BME280;27078;46.428;6.256;2023-04-28T12:27:15;96377.44;;;23.09;65.84
41334;BME280;27078;46.428;6.256;2023-04-28T12:29:42;96375.84;;;23.33;68.39
41334;BME280;27078;46.428;6.256;2023-04-28T12:32:10;96374.06;;;23.70;66.81
41334;BME280;27078;46.428;6.256;2023-04-28T12:34:38;96373.81;;;23.78;67.56
41334;BME280;27078;46.428;6.256;2023-04-28T12:37:08;96372.56;;;23.56;63.37
41334;BME280;27078;46.428;6.256;2023-04-28T12:39:35;96365.72;;;23.78;63.69
41334;BME280;27078;46.428;6.256;2023-04-28T12:42:02;96365.63;;;23.67;62.90
41334;BME280;27078;46.428;6.256;2023-04-28T12:44:35;96359.22;;;23.61;63.78
41334;BME280;27078;46.428;6.256;2023-04-28T12:47:06;96358.69;;;23.52;62.96
41334;BME280;27078;46.428;6.256;2023-04-28T12:49:36;96366.53;;;24.04;59.96
41334;BME280;27078;46.428;6.256;2023-04-28T12:52:04;96354.38;;;24.32;59.34
41334;BME280;27078;46.428;6.256;2023-04-28T12:54:31;96358.16;;;24.31;59.93
41334;BME280;27078;46.428;6.256;2023-04-28T12:56:58;96364.28;;;24.01;61.36
41334;BME280;27078;46.428;6.256;2023-04-28T12:59:24;96363.75;;;23.92;62.44
41334;BME280;27078;46.428;6.256;2023-04-28T13:01:49;96356.69;;;23.16;62.11
41334;BME280;27078;46.428;6.256;2023-04-28T13:04:16;96358.81;;;23.07;64.40
41334;BME280;27078;46.428;6.256;2023-04-28T13:06:42;96359.38;;;23.16;64.70
41334;BME280;27078;46.428;6.256;2023-04-28T13:09:12;96357.91;;;23.20;64.25
41334;BME280;27078;46.428;6.256;2023-04-28T13:11:39;96359.34;;;23.48;61.90
41334;BME280;27078;46.428;6.256;2023-04-28T13:14:05;96345.28;;;23.46;61.70
41334;BME280;27078;46.428;6.256;2023-04-28T13:16:30;96348.63;;;23.41;60.02
41334;BME280;27078;46.428;6.256;2023-04-28T13:18:56;96343.19;;;23.48;63.35